createdAt,value
2022-12-08T00:02:56.486Z,0.5
2022-12-08T00:04:56.521Z,0.5
2022-12-08T00:07:00.015Z,0.5
2022-12-08T00:08:59.098Z,0.3
2022-12-08T00:10:57.681Z,0.4
2022-12-08T00:13:00.363Z,0.4
2022-12-08T00:14:56.290Z,0.4
2022-12-08T00:16:57.095Z,0.4
2022-12-08T00:18:59.117Z,0.5
2022-12-08T00:20:59.945Z,0.4
2022-12-08T00:22:56.029Z,0.4
2022-12-08T00:26:57.589Z,0.3
2022-12-08T00:28:59.542Z,0.4
2022-12-08T00:31:00.426Z,0.3
2022-12-08T00:32:57.749Z,0.4
2022-12-08T00:34:57.853Z,0.3
2022-12-08T00:37:00.343Z,0.3
2022-12-08T00:38:55.999Z,0.4
2022-12-08T00:40:57.240Z,0.3
2022-12-08T00:42:59.455Z,0.2
2022-12-08T00:44:58.824Z,0.2
2022-12-08T00:46:54.089Z,0.3
2022-12-08T00:50:55.078Z,0.2
2022-12-08T00:52:58.152Z,0.3
2022-12-08T00:56:56.819Z,0.2
2022-12-08T00:58:54.049Z,0.2
2022-12-08T01:02:59.841Z,0.2
2022-12-08T01:04:57.217Z,0.2
2022-12-08T01:07:00.381Z,0.2
2022-12-08T01:09:00.000Z,0.2
2022-12-08T01:10:55.870Z,0.1
2022-12-08T01:14:55.886Z,0.1
2022-12-08T01:16:54.223Z,0.2
2022-12-08T01:18:59.767Z,0.2
2022-12-08T01:20:54.708Z,0.2
2022-12-08T01:22:54.078Z,0.2
2022-12-08T01:26:55.510Z,0.2
2022-12-08T01:28:54.504Z,0.1
2022-12-08T01:31:00.355Z,0.1
2022-12-08T01:32:57.389Z,0.1
2022-12-08T01:35:00.491Z,0
2022-12-08T01:36:59.299Z,0.1
2022-12-08T01:38:54.110Z,0.1
2022-12-08T01:40:56.064Z,0.1
2022-12-08T01:44:56.931Z,0.1
2022-12-08T01:46:57.295Z,0
2022-12-08T01:51:00.280Z,0
2022-12-08T01:53:00.895Z,0
2022-12-08T01:55:00.336Z,0
2022-12-08T01:56:59.830Z,0
2022-12-08T01:58:54.117Z,0.1
2022-12-08T02:00:57.987Z,0
2022-12-08T02:02:56.977Z,0.1
2022-12-08T02:04:55.516Z,0
2022-12-08T02:07:03.664Z,0
2022-12-08T02:08:54.702Z,0
2022-12-08T02:14:57.552Z,-0.1
2022-12-08T02:16:59.038Z,0
2022-12-08T02:19:28.862Z,-0.1
2022-12-08T02:20:57.235Z,0
2022-12-08T02:22:57.470Z,0.1
2022-12-08T02:25:00.290Z,0.1
2022-12-08T02:26:55.188Z,0
2022-12-08T02:28:54.129Z,0
2022-12-08T02:32:57.062Z,0
2022-12-08T02:34:56.457Z,-0.1
2022-12-08T02:38:54.162Z,-0.2
2022-12-08T02:40:54.109Z,-0.2
2022-12-08T02:44:59.508Z,-0.6
2022-12-08T02:46:54.052Z,-0.6
2022-12-08T02:49:00.425Z,-0.7
2022-12-08T02:51:00.012Z,-0.7
2022-12-08T02:52:56.286Z,-0.8
2022-12-08T02:56:54.110Z,-0.8
2022-12-08T02:58:54.077Z,-0.8
2022-12-08T03:02:57.009Z,-0.8
2022-12-08T03:04:54.030Z,-0.8
2022-12-08T03:06:59.601Z,-0.8
2022-12-08T03:08:58.191Z,-0.8
2022-12-08T03:10:55.852Z,-0.8
2022-12-08T03:13:00.463Z,-0.9
2022-12-08T03:14:56.805Z,-0.9
2022-12-08T03:16:55.881Z,-1
2022-12-08T03:20:59.005Z,-1.1
2022-12-08T03:22:55.625Z,-1.1
2022-12-08T03:25:00.318Z,-1.1
2022-12-08T03:26:55.991Z,-1.1
2022-12-08T03:28:55.879Z,-1.1
2022-12-08T03:31:01.026Z,-1.2
2022-12-08T03:32:55.506Z,-1.1
2022-12-08T03:34:58.934Z,-1.1
2022-12-08T03:37:00.694Z,-1
2022-12-08T03:38:54.116Z,-0.9
2022-12-08T03:40:59.109Z,-0.9
2022-12-08T03:43:00.459Z,-0.8
2022-12-08T03:44:58.936Z,-0.8
2022-12-08T03:46:58.614Z,-0.8
2022-12-08T03:49:00.215Z,-0.8
2022-12-08T03:50:54.147Z,-0.9
2022-12-08T03:52:59.380Z,-0.9
2022-12-08T03:55:00.395Z,-0.8
2022-12-08T03:56:59.965Z,-0.9
2022-12-08T03:58:57.354Z,-1
2022-12-08T04:01:00.378Z,-1.1
2022-12-08T04:02:56.753Z,-1.1
2022-12-08T04:04:59.048Z,-1.2
2022-12-08T04:08:57.479Z,-1.3
2022-12-08T04:10:58.643Z,-1.4
2022-12-08T04:13:00.705Z,-1.4
2022-12-08T04:14:54.094Z,-1.4
2022-12-08T04:17:00.811Z,-1.5
2022-12-08T04:20:57.110Z,-1.7
2022-12-08T04:22:57.668Z,-1.6
2022-12-08T04:26:54.132Z,-1.7
2022-12-08T04:28:57.259Z,-1.5
2022-12-08T04:32:56.310Z,-1.5
2022-12-08T04:34:57.606Z,-1.4
2022-12-08T04:38:57.101Z,-1.7
2022-12-08T04:40:56.837Z,-1.7
2022-12-08T04:42:59.463Z,-1.6
2022-12-08T04:44:56.030Z,-1.5
2022-12-08T04:46:54.277Z,-1.5
2022-12-08T04:50:56.272Z,-1.7
2022-12-08T04:52:57.589Z,-1.8
2022-12-08T04:55:00.270Z,-1.6
2022-12-08T04:56:56.073Z,-1.5
2022-12-08T04:58:54.128Z,-1.7
2022-12-08T05:02:59.341Z,-1.8
2022-12-08T05:04:57.309Z,-1.8
2022-12-08T05:08:56.930Z,-2
2022-12-08T05:10:54.901Z,-1.9
2022-12-08T05:13:00.258Z,-1.8
2022-12-08T05:14:55.908Z,-1.9
2022-12-08T05:16:57.980Z,-2
2022-12-08T05:19:00.475Z,-2.2
2022-12-08T05:20:54.146Z,-1.9
2022-12-08T05:23:01.198Z,-1.9
2022-12-08T05:25:00.406Z,-1.7
2022-12-08T05:26:58.547Z,-1.8
2022-12-08T05:28:54.049Z,-1.7
2022-12-08T05:33:02.094Z,-1.6
2022-12-08T05:34:59.503Z,-1.7
2022-12-08T05:38:57.586Z,-1.9
2022-12-08T05:40:54.205Z,-2.1
2022-12-08T05:43:00.384Z,-2.2
2022-12-08T05:44:57.735Z,-2.4
2022-12-08T05:46:56.520Z,-2.5
2022-12-08T05:48:59.712Z,-2.5
2022-12-08T05:50:57.620Z,-2.6
2022-12-08T05:52:57.745Z,-2.7
2022-12-08T05:56:56.345Z,-2.6
2022-12-08T05:58:57.703Z,-2.6
2022-12-08T06:01:00.362Z,-2.5
2022-12-08T06:02:54.226Z,-2.5
2022-12-08T06:04:54.142Z,-2.5
2022-12-08T06:07:00.622Z,-2.1
2022-12-08T06:08:56.921Z,-2.1
2022-12-08T06:10:57.388Z,-2.2
2022-12-08T06:14:55.873Z,-2.1
2022-12-08T06:16:57.317Z,-2.2
2022-12-08T06:19:00.396Z,-2.4
2022-12-08T06:20:58.233Z,-2.7
2022-12-08T06:22:54.119Z,-2.7
2022-12-08T06:25:00.602Z,-2.6
2022-12-08T06:26:55.618Z,-2.6
2022-12-08T06:28:55.980Z,-2.3
2022-12-08T06:32:54.191Z,-2.1
2022-12-08T06:35:00.040Z,-2.2
2022-12-08T06:38:57.595Z,-2
2022-12-08T06:40:55.787Z,-1.9
2022-12-08T06:44:59.262Z,-1.8
2022-12-08T06:46:56.008Z,-1.6
2022-12-08T06:50:57.582Z,-1.5
2022-12-08T06:53:04.659Z,-1.4
2022-12-08T06:56:59.525Z,-1.3
2022-12-08T06:58:54.135Z,-1.1
2022-12-08T07:00:59.707Z,-1.1
2022-12-08T07:02:57.781Z,-1
2022-12-08T07:04:58.710Z,-0.9
2022-12-08T07:08:59.655Z,-0.9
2022-12-08T07:10:55.939Z,-1
2022-12-08T07:14:54.156Z,-1
2022-12-08T07:16:55.683Z,-1
2022-12-08T07:18:59.771Z,-0.9
2022-12-08T07:20:56.321Z,-0.9
2022-12-08T07:22:54.104Z,-0.9
2022-12-08T07:26:55.490Z,-0.8
2022-12-08T07:28:54.098Z,-0.9
2022-12-08T07:32:54.081Z,-0.9
2022-12-08T07:34:54.162Z,-0.9
2022-12-08T07:36:59.211Z,-0.9
2022-12-08T07:38:58.359Z,-0.9
2022-12-08T07:40:55.546Z,-1.2
2022-12-08T07:43:00.075Z,-0.9
2022-12-08T07:44:56.504Z,-1.1
2022-12-08T07:46:54.072Z,-1.2
2022-12-08T07:50:55.584Z,-1.3
2022-12-08T07:52:57.333Z,-1.1
2022-12-08T07:55:00.406Z,-1.2
2022-12-08T07:56:58.534Z,-1.2
2022-12-08T07:58:54.158Z,-1.3
2022-12-08T08:01:00.558Z,-1.3
2022-12-08T08:02:57.576Z,-1
2022-12-08T08:04:58.290Z,-1.3
2022-12-08T08:08:57.680Z,-0.7
2022-12-08T08:10:57.768Z,-1
2022-12-08T08:14:55.941Z,-1.1
2022-12-08T08:17:00.700Z,-0.9
2022-12-08T08:18:59.860Z,-0.8
2022-12-08T08:20:54.135Z,-0.4
2022-12-08T08:22:56.154Z,-0.5
2022-12-08T08:26:57.601Z,-1
2022-12-08T08:28:59.553Z,-0.6
2022-12-08T08:31:00.644Z,-0.6
2022-12-08T08:32:57.748Z,-0.5
2022-12-08T08:34:58.096Z,-0.5
2022-12-08T08:37:00.030Z,-0.4
2022-12-08T08:38:56.995Z,-0.5
2022-12-08T08:40:55.743Z,-0.4
2022-12-08T08:43:00.557Z,-0.4
2022-12-08T08:44:55.649Z,-0.3
2022-12-08T08:46:55.998Z,-0.5
2022-12-08T08:49:00.285Z,-0.3
2022-12-08T08:50:55.995Z,-0.3
2022-12-08T08:52:54.101Z,-0.6
2022-12-08T08:56:57.763Z,-0.3
2022-12-08T08:58:56.904Z,-0.4
2022-12-08T09:00:59.150Z,-0.4
2022-12-08T09:02:56.289Z,-0.3
2022-12-08T09:04:56.441Z,-0.3
2022-12-08T09:07:00.626Z,-0.3
2022-12-08T09:08:57.351Z,-0.2
2022-12-08T09:10:54.134Z,-0.2
2022-12-08T09:14:57.972Z,-0.1
2022-12-08T09:16:55.192Z,0
2022-12-08T09:19:01.166Z,0.2
2022-12-08T09:20:57.194Z,0.1
2022-12-08T09:22:57.256Z,0.1
2022-12-08T09:26:57.291Z,0.1
2022-12-08T09:28:57.590Z,0
2022-12-08T09:31:00.399Z,0.1
2022-12-08T09:32:54.174Z,0.1
2022-12-08T09:34:56.901Z,0
2022-12-08T09:38:55.679Z,0.2
2022-12-08T09:40:56.989Z,0.3
2022-12-08T09:44:58.941Z,0.5
2022-12-08T09:46:54.223Z,0.5
2022-12-08T09:50:58.827Z,0.3
2022-12-08T09:52:58.187Z,0.4
2022-12-08T09:56:55.617Z,0.5
2022-12-08T09:58:58.186Z,0.5
2022-12-08T10:01:00.601Z,0.6
2022-12-08T10:02:56.238Z,0.7
2022-12-08T10:04:57.415Z,0.7
2022-12-08T10:08:59.123Z,0.9
2022-12-08T10:10:59.044Z,0.9
2022-12-08T10:13:00.623Z,0.9
2022-12-08T10:14:57.584Z,0.9
2022-12-08T10:16:54.263Z,0.9
2022-12-08T10:18:59.406Z,1
2022-12-08T10:20:56.769Z,1
2022-12-08T10:22:56.552Z,1
2022-12-08T10:25:00.476Z,1
2022-12-08T10:26:58.241Z,1.1
2022-12-08T10:28:57.360Z,1.2
2022-12-08T10:31:00.630Z,1.3
2022-12-08T10:32:55.610Z,1.3
2022-12-08T10:34:57.400Z,1.3
2022-12-08T10:37:01.322Z,1.4
2022-12-08T10:38:57.233Z,1.3
2022-12-08T10:40:56.797Z,1.3
2022-12-08T10:43:00.497Z,1.1
2022-12-08T10:44:55.974Z,0.8
2022-12-08T10:46:57.939Z,1.1
2022-12-08T10:49:00.694Z,1.1
2022-12-08T10:50:57.687Z,1.1
2022-12-08T10:52:57.016Z,1.3
2022-12-08T10:57:01.129Z,1.3
2022-12-08T10:58:55.680Z,1.2
2022-12-08T11:01:00.404Z,1.1
2022-12-08T11:02:57.180Z,1.3
2022-12-08T11:04:57.726Z,1.2
2022-12-08T11:07:00.864Z,1.3
2022-12-08T11:08:55.610Z,1.3
2022-12-08T11:10:55.682Z,1.3
2022-12-08T11:14:54.219Z,1.1
2022-12-08T11:16:58.951Z,1.3
2022-12-08T11:20:58.316Z,1
2022-12-08T11:22:55.685Z,1.3
2022-12-08T11:25:00.498Z,1.5
2022-12-08T11:26:56.345Z,1.4
2022-12-08T11:28:55.651Z,1.4
2022-12-08T11:30:56.520Z,1.4
2022-12-08T11:32:57.704Z,1.6
2022-12-08T11:35:00.678Z,1.5
2022-12-08T11:36:57.022Z,1.4
2022-12-08T11:38:54.239Z,1.7
2022-12-08T11:40:55.997Z,1.7
2022-12-08T11:44:57.367Z,1.4
2022-12-08T11:46:59.444Z,1.6
2022-12-08T11:49:05.827Z,1.9
2022-12-08T11:50:59.936Z,1.8
2022-12-08T11:52:54.157Z,1.9
2022-12-08T11:55:00.523Z,1.9
2022-12-08T11:56:56.040Z,2.1
2022-12-08T11:58:55.963Z,2.2
2022-12-08T12:02:57.871Z,2.1
2022-12-08T12:04:58.741Z,2.3
2022-12-08T12:06:59.928Z,2.4
2022-12-08T12:08:54.160Z,2.4
2022-12-08T12:10:57.891Z,2.4
2022-12-08T12:14:54.129Z,2.4
2022-12-08T12:16:56.800Z,2.6
2022-12-08T12:20:54.255Z,2.5
2022-12-08T12:22:56.954Z,2.3
2022-12-08T12:27:04.024Z,2.3
2022-12-08T12:28:58.744Z,2.3
2022-12-08T12:31:00.414Z,2.2
2022-12-08T12:32:57.026Z,2.1
2022-12-08T12:34:59.282Z,2.3
2022-12-08T12:38:57.745Z,2.1
2022-12-08T12:40:56.100Z,2.2
2022-12-08T12:43:00.743Z,2.2
2022-12-08T12:45:00.594Z,2.3
2022-12-08T12:46:57.662Z,2.3
2022-12-08T12:50:54.221Z,2.3
2022-12-08T12:52:57.087Z,2.2
2022-12-08T12:55:00.413Z,2.2
2022-12-08T12:56:54.238Z,2
2022-12-08T12:58:57.359Z,2.1
2022-12-08T13:02:59.295Z,2.2
2022-12-08T13:04:57.740Z,2.2
2022-12-08T13:09:00.516Z,2.2
2022-12-08T13:10:55.701Z,2.1
2022-12-08T13:14:58.803Z,2.3
2022-12-08T13:16:55.738Z,2.1
2022-12-08T13:19:00.432Z,2.1
2022-12-08T13:20:59.583Z,2
2022-12-08T13:26:54.301Z,2
2022-12-08T13:28:56.150Z,2.1
2022-12-08T13:31:00.885Z,2.2
2022-12-08T13:33:18.046Z,2
2022-12-08T13:34:57.424Z,2
2022-12-08T13:38:57.890Z,1.8
2022-12-08T13:40:57.830Z,1.7
2022-12-08T13:43:00.835Z,1.7
2022-12-08T13:45:21.716Z,1.7
2022-12-08T13:47:31.930Z,1.9
2022-12-08T13:52:37.308Z,1.9
2022-12-08T13:56:24.617Z,1.9
2022-12-08T13:57:10.372Z,1.8
2022-12-08T13:58:54.201Z,1.7
2022-12-08T14:02:57.011Z,1.7
2022-12-08T14:05:18.934Z,1.7
2022-12-08T14:07:00.450Z,1.7
2022-12-08T14:09:05.203Z,1.7
2022-12-08T14:10:56.146Z,1.7
2022-12-08T14:15:04.525Z,1.6
2022-12-08T14:16:54.316Z,1.6
2022-12-08T14:19:00.071Z,1.6
2022-12-08T14:21:19.781Z,1.6
2022-12-08T14:22:54.341Z,1.6
2022-12-08T14:26:58.284Z,1.4
2022-12-08T14:28:54.374Z,1.6
2022-12-08T14:31:00.098Z,1.4
2022-12-08T14:32:56.022Z,1.4
2022-12-08T14:34:59.724Z,1.4
2022-12-08T14:38:55.752Z,1.3
2022-12-08T14:40:57.797Z,1.4
2022-12-08T14:43:00.331Z,1.3
2022-12-08T14:44:59.590Z,1.4
2022-12-08T14:47:00.034Z,1.5
2022-12-08T14:49:00.099Z,1.3
2022-12-08T14:50:56.015Z,1.4
2022-12-08T14:52:55.742Z,1.4
2022-12-08T14:55:01.192Z,1.3
2022-12-08T14:56:55.355Z,1.2
2022-12-08T14:58:54.346Z,1.1
2022-12-08T15:02:58.459Z,1
2022-12-08T15:04:58.767Z,1.1
2022-12-08T15:07:00.664Z,1.1
2022-12-08T15:08:55.755Z,1.1
2022-12-08T15:11:01.198Z,1.1
2022-12-08T15:13:00.889Z,1.2
2022-12-08T15:14:57.464Z,1.1
2022-12-08T15:16:57.139Z,1.1
2022-12-08T15:20:56.354Z,1.1
2022-12-08T15:22:57.535Z,1
2022-12-08T15:25:00.397Z,1.1
2022-12-08T15:26:57.316Z,1.1
2022-12-08T15:28:54.297Z,0.9
2022-12-08T15:31:00.919Z,0.9
2022-12-08T15:32:57.642Z,0.9
2022-12-08T15:34:57.709Z,0.8
2022-12-08T15:38:56.232Z,0.8
2022-12-08T15:40:57.465Z,0.9
2022-12-08T15:44:56.889Z,0.8
2022-12-08T15:46:56.235Z,0.9
2022-12-08T15:49:00.713Z,0.8
2022-12-08T15:50:54.276Z,0.8
2022-12-08T15:52:56.148Z,0.7
2022-12-08T15:55:00.623Z,0.8
2022-12-08T15:57:17.776Z,0.6
2022-12-08T15:58:58.036Z,0.6
2022-12-08T16:03:18.724Z,0.7
2022-12-08T16:05:40.780Z,0.6
2022-12-08T16:09:06.026Z,0.6
2022-12-08T16:11:34.424Z,0.6
2022-12-08T16:15:46.955Z,0.6
2022-12-08T16:16:56.150Z,0.6
2022-12-08T16:21:22.607Z,0.4
2022-12-08T16:23:07.829Z,0.5
2022-12-08T16:27:58.424Z,0.3
2022-12-08T16:28:55.000Z,0.3
2022-12-08T16:30:59.815Z,0.4
2022-12-08T16:32:56.253Z,0.4
2022-12-08T16:34:57.409Z,0.4
2022-12-08T16:38:54.346Z,0.2
2022-12-08T16:40:54.309Z,0.2
2022-12-08T16:43:00.625Z,0.1
2022-12-08T16:44:57.991Z,0.1
2022-12-08T16:46:54.321Z,0.1
2022-12-08T16:49:00.686Z,0.2
2022-12-08T16:51:00.104Z,0.1
2022-12-08T16:52:54.293Z,-0.1
2022-12-08T16:54:59.259Z,-0.1
2022-12-08T16:56:56.091Z,-0.1
2022-12-08T16:58:58.529Z,-0.1
2022-12-08T17:02:57.801Z,-0.1
2022-12-08T17:04:59.990Z,-0.1
2022-12-08T17:08:54.259Z,-0.1
2022-12-08T17:10:56.941Z,-0.1
2022-12-08T17:13:00.524Z,-0.1
2022-12-08T17:14:54.307Z,-0.1
2022-12-08T17:16:56.552Z,-0.1
2022-12-08T17:19:00.729Z,-0.1
2022-12-08T17:21:00.547Z,-0.2
2022-12-08T17:22:57.424Z,-0.2
2022-12-08T17:26:57.677Z,-0.4
2022-12-08T17:29:00.814Z,-0.5
2022-12-08T17:32:57.433Z,-0.5
2022-12-08T17:34:55.351Z,-0.5
2022-12-08T17:36:59.472Z,-0.6
2022-12-08T17:38:57.242Z,-0.7
2022-12-08T17:40:58.708Z,-0.8
2022-12-08T17:44:54.304Z,-1
2022-12-08T17:46:59.327Z,-1
2022-12-08T17:52:09.271Z,-1.1
2022-12-08T17:54:06.368Z,-1
2022-12-08T17:56:15.765Z,-1
2022-12-08T17:58:07.835Z,-1
2022-12-08T18:00:07.037Z,-1
2022-12-08T18:02:14.520Z,-1
2022-12-08T18:04:06.445Z,-1.1
2022-12-08T18:06:06.389Z,-1.1
2022-12-08T18:08:14.037Z,-1
2022-12-08T18:10:05.204Z,-1
2022-12-08T18:12:08.762Z,-1
2022-12-08T18:14:07.483Z,-1
2022-12-08T18:16:11.590Z,-0.9
2022-12-08T18:18:06.449Z,-0.9
2022-12-08T18:20:07.115Z,-0.9
2022-12-08T18:22:09.625Z,-0.9
2022-12-08T18:24:04.989Z,-0.9
2022-12-08T18:26:05.066Z,-0.9
2022-12-08T18:28:12.535Z,-1
2022-12-08T18:30:09.029Z,-1.1
2022-12-08T18:32:05.090Z,-1
2022-12-08T18:34:13.298Z,-0.9
2022-12-08T18:36:10.510Z,-1
2022-12-08T18:38:06.870Z,-1
2022-12-08T18:40:05.271Z,-0.9
2022-12-08T18:42:07.389Z,-1
2022-12-08T18:44:12.029Z,-1
2022-12-08T18:46:07.921Z,-1
2022-12-08T18:48:04.949Z,-1
2022-12-08T18:50:08.726Z,-1
2022-12-08T18:52:04.650Z,-1
2022-12-08T18:54:04.641Z,-0.9
2022-12-08T18:56:05.029Z,-0.8
2022-12-08T18:58:04.590Z,-0.9
2022-12-08T19:00:04.800Z,-0.8
2022-12-08T19:02:10.341Z,-0.9
2022-12-08T19:04:29.502Z,-0.9
2022-12-08T19:06:04.699Z,-0.9
2022-12-08T19:08:15.906Z,-0.9
2022-12-08T19:10:07.348Z,-0.8
2022-12-08T19:12:07.550Z,-0.9
2022-12-08T19:14:08.750Z,-0.9
2022-12-08T19:16:08.646Z,-0.8
2022-12-08T19:18:05.005Z,-0.9
2022-12-08T19:20:09.696Z,-0.9
2022-12-08T19:22:04.683Z,-0.8
2022-12-08T19:24:12.032Z,-0.9
2022-12-08T19:26:08.514Z,-0.9
2022-12-08T19:28:04.989Z,-0.9
2022-12-08T19:30:06.096Z,-1
2022-12-08T19:32:07.587Z,-1
2022-12-08T19:34:08.784Z,-0.8
2022-12-08T19:36:06.710Z,-0.8
2022-12-08T19:38:09.164Z,-0.9
2022-12-08T19:40:04.962Z,-0.9
2022-12-08T19:42:04.572Z,-1
2022-12-08T19:44:07.542Z,-0.9
2022-12-08T19:46:10.813Z,-0.9
2022-12-08T19:48:06.803Z,-1
2022-12-08T19:50:07.140Z,-1
2022-12-08T19:52:09.253Z,-0.9
2022-12-08T19:54:08.387Z,-1
2022-12-08T19:56:06.890Z,-1
2022-12-08T19:58:16.185Z,-1.2
2022-12-08T20:00:09.714Z,-1
2022-12-08T20:02:09.972Z,-0.9
2022-12-08T20:04:10.490Z,-0.9
2022-12-08T20:06:07.799Z,-0.9
2022-12-08T20:08:08.324Z,-0.9
2022-12-08T20:10:09.032Z,-0.9
2022-12-08T20:12:06.893Z,-0.9
2022-12-08T20:14:08.209Z,-0.9
2022-12-08T20:16:04.764Z,-0.9
2022-12-08T20:18:08.278Z,-0.9
2022-12-08T20:20:07.296Z,-0.9
2022-12-08T20:22:09.147Z,-0.9
2022-12-08T20:24:08.371Z,-0.9
2022-12-08T20:26:06.971Z,-1
2022-12-08T20:28:14.445Z,-1
2022-12-08T20:30:15.171Z,-1
2022-12-08T20:32:08.399Z,-1
2022-12-08T20:34:09.274Z,-0.9
2022-12-08T20:36:05.032Z,-0.9
2022-12-08T20:38:08.410Z,-1.1
2022-12-08T20:40:04.810Z,-1
2022-12-08T20:42:08.929Z,-1
2022-12-08T20:44:05.895Z,-1
2022-12-08T20:46:04.672Z,-1
2022-12-08T20:50:04.955Z,-1
2022-12-08T20:52:08.355Z,-1
2022-12-08T20:54:04.715Z,-1.1
2022-12-08T20:56:04.715Z,-1.1
2022-12-08T20:58:08.707Z,-1.2
2022-12-08T21:00:10.132Z,-1.2
2022-12-08T21:02:12.140Z,-1.1
2022-12-08T21:04:07.855Z,-1.2
2022-12-08T21:06:08.336Z,-1.1
2022-12-08T21:08:09.647Z,-1.1
2022-12-08T21:10:09.035Z,-1.1
2022-12-08T21:12:12.171Z,-1.1
2022-12-08T21:14:05.066Z,-1.3
2022-12-08T21:16:05.110Z,-1.1
2022-12-08T21:18:08.375Z,-1.1
2022-12-08T21:20:12.767Z,-1.1
2022-12-08T21:22:09.206Z,-1.1
2022-12-08T21:24:04.937Z,-1
2022-12-08T21:26:12.427Z,-1
2022-12-08T21:28:09.935Z,-0.9
2022-12-08T21:30:06.062Z,-0.9
2022-12-08T21:32:12.534Z,-0.9
2022-12-08T21:34:04.752Z,-1
2022-12-08T21:36:06.956Z,-0.9
2022-12-08T21:38:11.175Z,-0.9
2022-12-08T21:40:07.640Z,-0.9
2022-12-08T21:42:17.444Z,-0.8
2022-12-08T21:44:06.611Z,-0.7
2022-12-08T21:46:04.642Z,-0.7
2022-12-08T21:48:11.826Z,-0.7
2022-12-08T21:50:07.187Z,-0.7
2022-12-08T21:52:11.998Z,-0.7
2022-12-08T21:54:10.916Z,-0.7
2022-12-08T21:56:08.379Z,-0.6
2022-12-08T21:58:04.768Z,-0.7
2022-12-08T22:00:05.172Z,-0.7
2022-12-08T22:02:10.681Z,-0.6
2022-12-08T22:04:06.324Z,-0.7
2022-12-08T22:06:04.801Z,-0.7
2022-12-08T22:08:14.341Z,-0.7
2022-12-08T22:10:09.641Z,-0.7
2022-12-08T22:12:05.321Z,-0.7
2022-12-08T22:14:10.952Z,-0.7
2022-12-08T22:16:10.532Z,-0.8
2022-12-08T22:18:04.832Z,-0.7
2022-12-08T22:20:06.772Z,-0.7
2022-12-08T22:22:14.781Z,-0.7
2022-12-08T22:24:07.094Z,-0.8
2022-12-08T22:26:15.883Z,-0.8
2022-12-08T22:30:07.426Z,-0.8
2022-12-08T22:32:05.241Z,-0.8
2022-12-08T22:34:08.487Z,-0.7
2022-12-08T22:36:11.074Z,-0.7
2022-12-08T22:38:08.356Z,-0.9
2022-12-08T22:40:05.264Z,-0.8
2022-12-08T22:42:05.059Z,-0.8
2022-12-08T22:44:08.418Z,-0.7
2022-12-08T22:46:12.714Z,-0.7
2022-12-08T22:48:16.432Z,-0.7
2022-12-08T22:50:07.883Z,-0.7
2022-12-08T22:52:04.742Z,-0.6
2022-12-08T22:54:04.897Z,-0.6
2022-12-08T22:56:04.855Z,-0.7
2022-12-08T22:58:04.932Z,-0.7
2022-12-08T23:00:11.477Z,-0.9
2022-12-08T23:02:04.708Z,-0.9
2022-12-08T23:04:17.596Z,-1.1
2022-12-08T23:06:12.383Z,-1.2
2022-12-08T23:08:08.338Z,-1.2
2022-12-08T23:10:08.460Z,-1.2
2022-12-08T23:12:06.937Z,-1.2
2022-12-08T23:14:11.657Z,-1.3
2022-12-08T23:16:06.030Z,-1.2
2022-12-08T23:18:05.208Z,-1.3
2022-12-08T23:20:08.394Z,-1.3
2022-12-08T23:22:04.812Z,-1.3
2022-12-08T23:24:05.259Z,-1.1
2022-12-08T23:26:10.939Z,-1.2
2022-12-08T23:28:07.457Z,-1.2
2022-12-08T23:30:05.228Z,-1.2
2022-12-08T23:32:08.462Z,-1.1
2022-12-08T23:34:04.711Z,-1.1
2022-12-08T23:36:09.105Z,-1.1
2022-12-08T23:38:08.691Z,-1.1
2022-12-08T23:40:11.540Z,-1.2
2022-12-08T23:42:04.878Z,-1.2
2022-12-08T23:44:14.559Z,-1.2
2022-12-08T23:46:04.860Z,-1.2
2022-12-08T23:48:04.723Z,-1.4
2022-12-08T23:50:07.650Z,-1.4
2022-12-08T23:52:12.280Z,-1.4
2022-12-08T23:54:05.091Z,-1.4
2022-12-08T23:56:08.188Z,-1.4
2022-12-08T23:58:06.412Z,-1.4
